Time;durP1;ratioP1;P1;durP2;ratioP2;P2;SDS_P1;SDS_P2;PMS_P1;PMS_P2;Temp;Humidity;BMP_temperature;BMP_pressure;BME280_temperature;BME280_humidity;BME280_pressure;Samples;Min_cycle;Max_cycle;Signal;HPM_P1;HPM_P2
2023/05/19 00:01:06;;;;;;;2.05;0.70;;;;;;;;;;5045293;28;21295;-69
2023/05/19 00:03:33;;;;;;;0.75;0.60;;;;;;;;;;5025708;28;20056;-67
2023/05/19 00:06:01;;;;;;;0.90;0.63;;;;;;;;;;5043204;28;20049;-67
2023/05/19 00:08:30;;;;;;;2.08;0.60;;;;;;;;;;5026842;28;20041;-67
2023/05/19 00:10:56;;;;;;;1.35;1.00;;;;;;;;;;5025448;28;20053;-67
2023/05/19 00:13:22;;;;;;;1.55;0.80;;;;;;;;;;5043734;28;20052;-67
2023/05/19 00:15:49;;;;;;;0.95;0.70;;;;;;;;;;5026973;28;20045;-68
2023/05/19 00:18:16;;;;;;;0.82;0.70;;;;;;;;;;5048167;28;20116;-67
2023/05/19 00:20:42;;;;;;;1.20;0.93;;;;;;;;;;5048035;28;20561;-67
2023/05/19 00:23:08;;;;;;;1.70;0.90;;;;;;;;;;5029026;28;20037;-67
2023/05/19 00:25:34;;;;;;;1.00;0.90;;;;;;;;;;5049026;28;20079;-67
2023/05/19 00:28:01;;;;;;;2.97;1.00;;;;;;;;;;5028970;28;20055;-67
2023/05/19 00:30:28;;;;;;;0.98;0.85;;;;;;;;;;5028949;28;20067;-67
2023/05/19 00:32:54;;;;;;;0.95;0.80;;;;;;;;;;5028585;28;20053;-67
2023/05/19 00:35:20;;;;;;;0.80;0.70;;;;;;;;;;5029240;28;20049;-67
2023/05/19 00:37:47;;;;;;;1.92;0.60;;;;;;;;;;5026223;28;20041;-67
2023/05/19 00:40:13;;;;;;;0.70;0.47;;;;;;;;;;5027450;28;20215;-67
2023/05/19 00:42:40;;;;;;;3.83;1.35;;;;;;;;;;5029654;28;20049;-67
2023/05/19 00:45:06;;;;;;;1.10;0.70;;;;;;;;;;5047635;28;21143;-67
2023/05/19 00:47:32;;;;;;;0.98;0.52;;;;;;;;;;5029053;28;20139;-67
2023/05/19 00:49:58;;;;;;;0.73;0.50;;;;;;;;;;5046108;28;20049;-67
2023/05/19 00:52:25;;;;;;;1.05;0.52;;;;;;;;;;5048465;28;20048;-67
2023/05/19 00:54:51;;;;;;;1.70;0.60;;;;;;;;;;5046818;28;20044;-67
2023/05/19 00:57:17;;;;;;;0.57;0.47;;;;;;;;;;5032547;28;20044;-67
2023/05/19 00:59:43;;;;;;;0.80;0.70;;;;;;;;;;5030228;28;20051;-67
2023/05/19 01:02:10;;;;;;;1.85;0.73;;;;;;;;;;5048815;28;20040;-67
2023/05/19 01:04:38;;;;;;;1.70;0.75;;;;;;;;;;5046180;28;20045;-67
2023/05/19 01:07:04;;;;;;;1.38;0.80;;;;;;;;;;5029886;28;20521;-67
2023/05/19 01:09:31;;;;;;;0.90;0.57;;;;;;;;;;5046375;28;20045;-67
2023/05/19 01:11:57;;;;;;;0.52;0.45;;;;;;;;;;5044810;28;20398;-67
2023/05/19 01:14:23;;;;;;;1.65;0.60;;;;;;;;;;5028630;28;20390;-67
2023/05/19 01:16:55;;;;;;;1.05;0.50;;;;;;;;;;5046108;28;20446;-68
2023/05/19 01:19:21;;;;;;;;;;;;;;;;;;5028194;28;20055;-67
2023/05/19 01:21:54;;;;;;;0.63;0.50;;;;;;;;;;5045793;28;19920;-67
2023/05/19 01:24:29;;;;;;;0.40;0.30;;;;;;;;;;5030157;28;20118;-67
2023/05/19 01:27:07;;;;;;;0.95;0.40;;;;;;;;;;5025062;28;20041;-67
2023/05/19 01:29:53;;;;;;;1.02;0.20;;;;;;;;;;5025889;28;20154;-67
2023/05/19 01:32:20;;;;;;;0.80;0.32;;;;;;;;;;5046039;28;20084;-67
2023/05/19 01:34:48;;;;;;;0.47;0.40;;;;;;;;;;5029814;28;20392;-67
2023/05/19 01:37:15;;;;;;;0.70;0.40;;;;;;;;;;5028790;28;20037;-67
2023/05/19 01:39:43;;;;;;;0.40;0.30;;;;;;;;;;5042520;28;20376;-68
2023/05/19 01:42:10;;;;;;;0.30;0.20;;;;;;;;;;5046209;28;20089;-67
2023/05/19 01:44:36;;;;;;;1.33;0.60;;;;;;;;;;5028099;28;20049;-67
2023/05/19 01:47:03;;;;;;;0.40;0.40;;;;;;;;;;5044267;28;20044;-67
2023/05/19 01:49:29;;;;;;;0.68;0.40;;;;;;;;;;5027792;28;20049;-67
2023/05/19 01:51:55;;;;;;;0.50;0.35;;;;;;;;;;5026991;28;20041;-67
2023/05/19 01:54:21;;;;;;;0.60;0.30;;;;;;;;;;5026993;28;20049;-67
2023/05/19 01:56:57;;;;;;;0.73;0.35;;;;;;;;;;5026934;28;20045;-67
2023/05/19 01:59:26;;;;;;;0.98;0.65;;;;;;;;;;5045624;28;20060;-68
2023/05/19 02:01:53;;;;;;;0.95;0.50;;;;;;;;;;5027263;28;20049;-68
2023/05/19 02:04:26;;;;;;;0.47;0.30;;;;;;;;;;5045178;28;20576;-67
2023/05/19 02:07:11;;;;;;;0.40;0.40;;;;;;;;;;5026368;28;20131;-68
2023/05/19 02:09:39;;;;;;;1.55;0.40;;;;;;;;;;5022848;28;20048;-67
2023/05/19 02:12:11;;;;;;;0.70;0.30;;;;;;;;;;5027190;28;20155;-67
2023/05/19 02:14:37;;;;;;;0.70;0.40;;;;;;;;;;5047036;28;20037;-67
2023/05/19 02:17:04;;;;;;;0.55;0.38;;;;;;;;;;5043924;28;20842;-67
2023/05/19 02:19:33;;;;;;;0.55;0.32;;;;;;;;;;5027618;28;20045;-68
2023/05/19 02:21:59;;;;;;;0.85;0.50;;;;;;;;;;5025734;28;20041;-67
2023/05/19 02:24:25;;;;;;;1.40;0.40;;;;;;;;;;5027788;28;20041;-67
2023/05/19 02:26:52;;;;;;;0.47;0.35;;;;;;;;;;5027330;28;20033;-68
2023/05/19 02:29:19;;;;;;;0.82;0.30;;;;;;;;;;5046132;28;20563;-68
2023/05/19 02:31:45;;;;;;;0.25;0.25;;;;;;;;;;5045342;28;20446;-68
2023/05/19 02:34:11;;;;;;;1.45;0.45;;;;;;;;;;5026732;28;20052;-67
2023/05/19 02:36:40;;;;;;;1.13;0.50;;;;;;;;;;5026751;28;20106;-67
2023/05/19 02:39:07;;;;;;;1.38;0.30;;;;;;;;;;5025844;28;21832;-67
2023/05/19 02:41:33;;;;;;;0.52;0.20;;;;;;;;;;5026999;28;20407;-67
2023/05/19 02:43:59;;;;;;;0.32;0.30;;;;;;;;;;5025438;28;20049;-67
2023/05/19 02:46:25;;;;;;;0.35;0.30;;;;;;;;;;5044708;28;20044;-67
2023/05/19 02:48:52;;;;;;;0.47;0.30;;;;;;;;;;5041054;28;20407;-68
2023/05/19 02:51:18;;;;;;;0.30;0.25;;;;;;;;;;5043920;28;20053;-67
2023/05/19 02:53:45;;;;;;;1.48;0.35;;;;;;;;;;5044903;28;20055;-67
2023/05/19 02:56:11;;;;;;;0.88;0.38;;;;;;;;;;5026429;28;20040;-67
2023/05/19 02:58:38;;;;;;;0.60;0.40;;;;;;;;;;5043231;28;20056;-67
2023/05/19 03:01:04;;;;;;;0.68;0.45;;;;;;;;;;5043768;28;20533;-67
2023/05/19 03:03:30;;;;;;;2.10;0.75;;;;;;;;;;5044427;28;20067;-67
2023/05/19 03:05:57;;;;;;;0.85;0.60;;;;;;;;;;5042934;28;20498;-68
2023/05/19 03:08:23;;;;;;;1.17;0.60;;;;;;;;;;5044134;28;20049;-67
2023/05/19 03:10:49;;;;;;;0.28;0.28;;;;;;;;;;5043736;28;20075;-68
2023/05/19 03:13:15;;;;;;;1.38;0.63;;;;;;;;;;5046532;28;20701;-67
2023/05/19 03:15:42;;;;;;;0.65;0.50;;;;;;;;;;5026683;28;20045;-67
2023/05/19 03:18:08;;;;;;;0.77;0.47;;;;;;;;;;5025627;28;20476;-68
2023/05/19 03:20:34;;;;;;;0.60;0.30;;;;;;;;;;5026268;28;20045;-68
2023/05/19 03:23:00;;;;;;;1.25;0.35;;;;;;;;;;5043186;28;20053;-68
2023/05/19 03:25:26;;;;;;;0.77;0.50;;;;;;;;;;5043244;28;20650;-67
2023/05/19 03:27:52;;;;;;;0.57;0.40;;;;;;;;;;5025451;28;20052;-68
2023/05/19 03:30:18;;;;;;;1.60;0.60;;;;;;;;;;5025714;28;20044;-67
2023/05/19 03:32:44;;;;;;;0.90;0.73;;;;;;;;;;5025607;28;20056;-67
2023/05/19 03:35:10;;;;;;;0.35;0.30;;;;;;;;;;5024203;28;20040;-67
2023/05/19 03:37:36;;;;;;;1.70;0.43;;;;;;;;;;5043822;28;20077;-67
2023/05/19 03:40:04;;;;;;;1.90;0.70;;;;;;;;;;5024464;28;20450;-68
2023/05/19 03:42:30;;;;;;;0.65;0.30;;;;;;;;;;5041604;28;20587;-68
2023/05/19 03:44:56;;;;;;;0.95;0.75;;;;;;;;;;5042937;28;20048;-67
2023/05/19 03:47:22;;;;;;;0.47;0.30;;;;;;;;;;5025147;28;20049;-68
2023/05/19 03:49:48;;;;;;;0.63;0.38;;;;;;;;;;5043042;28;20216;-67
2023/05/19 03:52:14;;;;;;;0.60;0.30;;;;;;;;;;5043085;28;20049;-67
2023/05/19 03:54:41;;;;;;;0.40;0.20;;;;;;;;;;5043042;28;20048;-67
2023/05/19 03:57:08;;;;;;;1.35;0.30;;;;;;;;;;5025393;28;20475;-67
2023/05/19 03:59:36;;;;;;;0.45;0.25;;;;;;;;;;5043707;28;20491;-67
2023/05/19 04:02:02;;;;;;;0.35;0.35;;;;;;;;;;5024459;28;20049;-68
2023/05/19 04:04:28;;;;;;;0.60;0.30;;;;;;;;;;5025452;28;20388;-68
2023/05/19 04:06:54;;;;;;;3.08;0.75;;;;;;;;;;5042723;28;20048;-68
2023/05/19 04:09:22;;;;;;;0.20;0.20;;;;;;;;;;5043684;28;20039;-68
2023/05/19 04:11:49;;;;;;;0.30;0.30;;;;;;;;;;5042438;28;20056;-68
2023/05/19 04:14:15;;;;;;;0.35;0.30;;;;;;;;;;5025692;28;20116;-67
2023/05/19 04:16:41;;;;;;;0.82;0.38;;;;;;;;;;5024773;28;20049;-68
2023/05/19 04:19:07;;;;;;;0.30;0.30;;;;;;;;;;5042457;28;20049;-68
2023/05/19 04:21:33;;;;;;;1.35;0.40;;;;;;;;;;5024971;28;20106;-68
2023/05/19 04:23:59;;;;;;;0.45;0.45;;;;;;;;;;5042789;28;20508;-68
2023/05/19 04:26:29;;;;;;;2.53;0.82;;;;;;;;;;5025490;28;20044;-68
2023/05/19 04:28:55;;;;;;;0.80;0.47;;;;;;;;;;5042099;28;20162;-68
2023/05/19 04:31:21;;;;;;;0.63;0.50;;;;;;;;;;5043209;28;20128;-68
2023/05/19 04:33:48;;;;;;;2.40;0.68;;;;;;;;;;5024654;28;20045;-67
2023/05/19 04:36:16;;;;;;;0.73;0.60;;;;;;;;;;5025502;28;20052;-68
2023/05/19 04:38:44;;;;;;;1.45;0.57;;;;;;;;;;5044285;28;20119;-68
2023/05/19 04:41:10;;;;;;;0.73;0.50;;;;;;;;;;5043209;28;20045;-69
2023/05/19 04:43:40;;;;;;;0.60;0.60;;;;;;;;;;5024411;28;20192;-68
2023/05/19 04:46:06;;;;;;;0.35;0.20;;;;;;;;;;5041547;28;20074;-68
2023/05/19 04:48:32;;;;;;;1.25;0.40;;;;;;;;;;5042802;28;20546;-68
2023/05/19 04:51:01;;;;;;;0.55;0.47;;;;;;;;;;5023730;28;20510;-68
2023/05/19 04:53:28;;;;;;;0.32;0.25;;;;;;;;;;5024955;28;20485;-68
2023/05/19 04:55:55;;;;;;;0.40;0.20;;;;;;;;;;5024221;28;20147;-68
2023/05/19 04:58:24;;;;;;;0.57;0.30;;;;;;;;;;5024665;28;20517;-68
2023/05/19 05:00:51;;;;;;;0.40;0.40;;;;;;;;;;5042666;28;20090;-68
2023/05/19 05:03:17;;;;;;;0.70;0.40;;;;;;;;;;5026883;28;20091;-68
2023/05/19 05:05:43;;;;;;;0.63;0.38;;;;;;;;;;5046444;28;20735;-68
2023/05/19 05:08:14;;;;;;;1.15;0.38;;;;;;;;;;5045755;28;20055;-68
2023/05/19 05:10:40;;;;;;;0.75;0.65;;;;;;;;;;5028431;28;20103;-68
2023/05/19 05:13:06;;;;;;;1.00;0.20;;;;;;;;;;5027671;28;20049;-68
2023/05/19 05:15:32;;;;;;;0.30;0.30;;;;;;;;;;5046313;28;20053;-67
2023/05/19 05:17:59;;;;;;;0.90;0.30;;;;;;;;;;5027342;28;20403;-68
2023/05/19 05:20:25;;;;;;;0.77;0.38;;;;;;;;;;5025713;28;20078;-68
2023/05/19 05:22:51;;;;;;;0.43;0.40;;;;;;;;;;5028938;28;20602;-68
2023/05/19 05:25:17;;;;;;;0.10;0.10;;;;;;;;;;5045686;28;20041;-68
2023/05/19 05:27:43;;;;;;;0.68;0.43;;;;;;;;;;5028936;28;20080;-67
2023/05/19 05:30:09;;;;;;;1.55;0.57;;;;;;;;;;5030216;28;20407;-68
2023/05/19 05:32:35;;;;;;;0.63;0.30;;;;;;;;;;5027814;28;20053;-68
2023/05/19 05:35:02;;;;;;;0.40;0.28;;;;;;;;;;5027630;28;20048;-68
2023/05/19 05:37:28;;;;;;;0.45;0.40;;;;;;;;;;5046134;28;20078;-68
2023/05/19 05:39:54;;;;;;;0.52;0.43;;;;;;;;;;5044668;28;20049;-68
2023/05/19 05:42:20;;;;;;;0.70;0.63;;;;;;;;;;5046118;28;20045;-68
2023/05/19 05:44:46;;;;;;;1.00;0.45;;;;;;;;;;5028072;28;20441;-68
2023/05/19 05:47:12;;;;;;;1.10;0.40;;;;;;;;;;5045462;28;20048;-68
2023/05/19 05:49:39;;;;;;;0.30;0.30;;;;;;;;;;5044342;28;20114;-67
2023/05/19 05:52:06;;;;;;;0.93;0.50;;;;;;;;;;5043823;28;20408;-68
2023/05/19 05:54:32;;;;;;;0.43;0.43;;;;;;;;;;5045563;28;20048;-68
2023/05/19 05:56:58;;;;;;;0.77;0.50;;;;;;;;;;5044956;28;20403;-68
2023/05/19 05:59:24;;;;;;;0.60;0.30;;;;;;;;;;5044474;28;20487;-68
2023/05/19 06:01:50;;;;;;;1.50;0.60;;;;;;;;;;5044304;28;20056;-68
2023/05/19 06:04:16;;;;;;;1.90;0.98;;;;;;;;;;5027259;28;20033;-68
2023/05/19 06:06:42;;;;;;;0.85;0.60;;;;;;;;;;5027856;28;20345;-68
2023/05/19 06:09:08;;;;;;;0.47;0.45;;;;;;;;;;5044202;28;20042;-68
2023/05/19 06:11:34;;;;;;;2.00;1.00;;;;;;;;;;5045147;28;20089;-68
2023/05/19 06:14:00;;;;;;;1.75;0.77;;;;;;;;;;5025164;28;20049;-68
2023/05/19 06:16:26;;;;;;;0.77;0.65;;;;;;;;;;5044727;28;20041;-68
2023/05/19 06:18:52;;;;;;;0.80;0.68;;;;;;;;;;5044857;28;20480;-68
2023/05/19 06:21:18;;;;;;;0.43;0.43;;;;;;;;;;5027427;28;20040;-68
2023/05/19 06:23:44;;;;;;;0.73;0.60;;;;;;;;;;5045452;28;20081;-68
2023/05/19 06:26:10;;;;;;;0.60;0.60;;;;;;;;;;5026785;28;20483;-68
2023/05/19 06:28:36;;;;;;;1.02;0.82;;;;;;;;;;5026317;28;20072;-68
2023/05/19 06:31:02;;;;;;;0.73;0.60;;;;;;;;;;5043288;28;20135;-68
2023/05/19 06:33:28;;;;;;;2.35;0.55;;;;;;;;;;5044910;28;20182;-68
2023/05/19 06:35:54;;;;;;;1.35;0.90;;;;;;;;;;5043557;28;20643;-68
2023/05/19 06:38:20;;;;;;;3.10;1.00;;;;;;;;;;5026660;28;20132;-68
2023/05/19 06:40:46;;;;;;;1.27;0.80;;;;;;;;;;5044623;28;20163;-68
2023/05/19 06:43:12;;;;;;;3.42;1.70;;;;;;;;;;5044063;28;20527;-68
2023/05/19 06:45:38;;;;;;;1.63;1.23;;;;;;;;;;5044744;28;20086;-68
2023/05/19 06:48:04;;;;;;;1.15;0.88;;;;;;;;;;5026882;28;20558;-68
2023/05/19 06:50:30;;;;;;;2.53;1.30;;;;;;;;;;5043997;28;20102;-68
2023/05/19 06:52:57;;;;;;;1.30;1.17;;;;;;;;;;5043642;28;20181;-68
2023/05/19 06:55:24;;;;;;;2.72;1.75;;;;;;;;;;5043612;28;20847;-69
2023/05/19 06:57:50;;;;;;;1.00;0.80;;;;;;;;;;5026199;28;20045;-69
2023/05/19 07:00:17;;;;;;;1.33;0.80;;;;;;;;;;5025604;28;20047;-68
2023/05/19 07:02:43;;;;;;;1.88;1.48;;;;;;;;;;5046199;28;20099;-68
2023/05/19 07:05:09;;;;;;;1.75;1.10;;;;;;;;;;5043509;28;20055;-68
2023/05/19 07:07:35;;;;;;;1.17;1.00;;;;;;;;;;5026471;28;20044;-68
2023/05/19 07:10:01;;;;;;;1.67;1.20;;;;;;;;;;5025986;28;20052;-68
2023/05/19 07:12:27;;;;;;;5.47;1.40;;;;;;;;;;5043850;28;20037;-69
2023/05/19 07:14:53;;;;;;;1.52;1.40;;;;;;;;;;5043641;28;20045;-68
2023/05/19 07:17:19;;;;;;;1.85;1.20;;;;;;;;;;5025202;28;20084;-68
2023/05/19 07:19:45;;;;;;;3.30;1.80;;;;;;;;;;5043914;28;20120;-69
2023/05/19 07:22:11;;;;;;;1.85;1.27;;;;;;;;;;5043723;28;20381;-69
2023/05/19 07:24:37;;;;;;;1.73;0.90;;;;;;;;;;5025702;28;20253;-68
2023/05/19 07:27:03;;;;;;;0.93;0.90;;;;;;;;;;5043262;28;20107;-69
2023/05/19 07:29:29;;;;;;;1.20;1.10;;;;;;;;;;5044259;28;20036;-68
2023/05/19 07:31:56;;;;;;;1.00;0.90;;;;;;;;;;5041861;28;20132;-68
2023/05/19 07:34:23;;;;;;;2.15;1.33;;;;;;;;;;5044286;28;20049;-69
2023/05/19 07:36:50;;;;;;;1.65;1.17;;;;;;;;;;5027384;28;20179;-68
2023/05/19 07:39:16;;;;;;;2.20;0.80;;;;;;;;;;5043378;28;20697;-69
2023/05/19 07:41:42;;;;;;;1.83;1.13;;;;;;;;;;5024923;28;20120;-69
2023/05/19 07:44:09;;;;;;;3.38;1.63;;;;;;;;;;5043893;28;20128;-69
2023/05/19 07:46:36;;;;;;;1.98;1.05;;;;;;;;;;5025877;28;20453;-69
2023/05/19 07:49:02;;;;;;;2.40;0.88;;;;;;;;;;5025647;28;20057;-68
2023/05/19 07:51:28;;;;;;;1.88;1.30;;;;;;;;;;5036927;28;20442;-68
2023/05/19 07:53:54;;;;;;;1.33;1.05;;;;;;;;;;5043140;28;20060;-68
2023/05/19 07:56:20;;;;;;;2.47;1.05;;;;;;;;;;5025931;28;20057;-68
2023/05/19 07:58:46;;;;;;;1.20;1.10;;;;;;;;;;5044125;28;20049;-70
2023/05/19 08:01:12;;;;;;;3.22;1.13;;;;;;;;;;5025115;28;20037;-64
2023/05/19 08:03:38;;;;;;;3.28;1.33;;;;;;;;;;5043787;28;20381;-66
2023/05/19 08:06:04;;;;;;;3.33;1.67;;;;;;;;;;5025095;28;20045;-64
2023/05/19 08:08:32;;;;;;;4.97;1.98;;;;;;;;;;5044585;28;20084;-64
2023/05/19 08:11:00;;;;;;;2.28;1.55;;;;;;;;;;5043503;28;20177;-67
2023/05/19 08:13:27;;;;;;;2.85;1.48;;;;;;;;;;5043784;28;20530;-71
2023/05/19 08:15:58;;;;;;;4.35;1.55;;;;;;;;;;5043150;28;20478;-73
2023/05/19 08:18:24;;;;;;;2.10;1.30;;;;;;;;;;5044489;28;20610;-70
2023/05/19 08:20:50;;;;;;;2.65;1.15;;;;;;;;;;5024915;28;20044;-71
2023/05/19 08:23:16;;;;;;;3.00;1.45;;;;;;;;;;5025469;28;20414;-71
2023/05/19 08:25:42;;;;;;;2.00;1.80;;;;;;;;;;5026720;28;20051;-70
2023/05/19 08:28:08;;;;;;;1.80;1.17;;;;;;;;;;5042682;28;20059;-70
2023/05/19 08:30:34;;;;;;;2.38;1.45;;;;;;;;;;5025978;28;20484;-70
2023/05/19 08:33:01;;;;;;;5.47;1.65;;;;;;;;;;5043433;28;20056;-70
2023/05/19 08:35:27;;;;;;;2.25;1.13;;;;;;;;;;5043373;28;20070;-70
2023/05/19 08:37:53;;;;;;;2.78;1.20;;;;;;;;;;5045451;28;20053;-70
2023/05/19 08:40:19;;;;;;;1.35;1.25;;;;;;;;;;5031973;28;20052;-70
2023/05/19 08:42:46;;;;;;;1.75;1.45;;;;;;;;;;5055942;28;20041;-70
2023/05/19 08:45:12;;;;;;;1.15;1.05;;;;;;;;;;5045863;28;20045;-71
2023/05/19 08:47:41;;;;;;;2.67;1.80;;;;;;;;;;5029556;28;20533;-70
2023/05/19 08:50:09;;;;;;;2.78;1.50;;;;;;;;;;5045864;28;20201;-70
2023/05/19 08:53:08;;;;;;;1.88;1.50;;;;;;;;;;5047373;28;20140;-70
2023/05/19 08:55:41;;;;;;;3.03;1.80;;;;;;;;;;5013609;28;20052;-70
2023/05/19 08:58:08;;;;;;;2.17;1.50;;;;;;;;;;5046349;28;20040;-70
2023/05/19 09:00:34;;;;;;;4.05;1.80;;;;;;;;;;5029345;28;20128;-70
2023/05/19 09:03:00;;;;;;;1.48;1.33;;;;;;;;;;5028321;28;20479;-70
2023/05/19 09:05:26;;;;;;;2.03;1.15;;;;;;;;;;5029446;28;20049;-70
2023/05/19 09:07:52;;;;;;;1.40;1.23;;;;;;;;;;5028185;28;20041;-70
2023/05/19 09:10:18;;;;;;;2.22;1.48;;;;;;;;;;5046004;28;20056;-70
2023/05/19 09:12:46;;;;;;;6.57;1.65;;;;;;;;;;5029352;28;20049;-70
2023/05/19 09:15:13;;;;;;;2.42;1.52;;;;;;;;;;5028831;28;20467;-70
2023/05/19 09:17:39;;;;;;;2.13;1.30;;;;;;;;;;5046530;28;20084;-70
2023/05/19 09:20:09;;;;;;;2.40;1.23;;;;;;;;;;5046290;28;20055;-70
2023/05/19 09:22:46;;;;;;;2.55;1.40;;;;;;;;;;5046722;28;20122;-70
2023/05/19 09:25:24;;;;;;;2.28;1.50;;;;;;;;;;5046378;28;20661;-70
2023/05/19 09:27:50;;;;;;;2.08;1.48;;;;;;;;;;5042027;28;20041;-70
2023/05/19 09:30:17;;;;;;;1.38;1.15;;;;;;;;;;5028758;28;20041;-70
2023/05/19 09:32:43;;;;;;;2.30;1.30;;;;;;;;;;5028189;28;20051;-70
2023/05/19 09:35:11;;;;;;;3.30;1.90;;;;;;;;;;5028411;28;20053;-70
2023/05/19 09:37:39;;;;;;;3.70;1.90;;;;;;;;;;5046496;28;20464;-70
2023/05/19 09:40:06;;;;;;;2.78;1.75;;;;;;;;;;5027233;28;20498;-70
2023/05/19 09:42:36;;;;;;;1.60;1.33;;;;;;;;;;5046639;28;20033;-69
2023/05/19 09:45:03;;;;;;;3.00;2.00;;;;;;;;;;5027446;28;20048;-70
2023/05/19 09:47:38;;;;;;;3.80;1.50;;;;;;;;;;5046293;28;20056;-70
2023/05/19 09:50:08;;;;;;;2.35;1.63;;;;;;;;;;5026331;28;20060;-70
2023/05/19 09:52:35;;;;;;;2.80;1.58;;;;;;;;;;5027404;28;20251;-70
2023/05/19 09:55:03;;;;;;;1.88;1.35;;;;;;;;;;5027899;28;20091;-70
2023/05/19 09:57:33;;;;;;;2.80;1.63;;;;;;;;;;5028516;28;20064;-70
2023/05/19 09:59:59;;;;;;;2.15;1.30;;;;;;;;;;5027221;28;20052;-71
2023/05/19 10:02:26;;;;;;;2.72;1.65;;;;;;;;;;5043295;28;20037;-70
2023/05/19 10:04:53;;;;;;;2.25;1.63;;;;;;;;;;5051192;28;20050;-70
2023/05/19 10:07:20;;;;;;;1.85;1.50;;;;;;;;;;5034635;28;20506;-70
2023/05/19 10:09:48;;;;;;;2.80;1.42;;;;;;;;;;5030716;28;20561;-68
2023/05/19 10:12:14;;;;;;;2.25;1.52;;;;;;;;;;5045586;28;20045;-69
2023/05/19 10:14:40;;;;;;;3.38;1.38;;;;;;;;;;5045176;28;20056;-70
2023/05/19 10:17:06;;;;;;;3.20;1.30;;;;;;;;;;5027074;28;20063;-72
2023/05/19 10:19:35;;;;;;;2.55;1.10;;;;;;;;;;5033273;28;20045;-72
2023/05/19 10:22:01;;;;;;;3.25;1.38;;;;;;;;;;5026857;28;20423;-72
2023/05/19 10:24:27;;;;;;;2.17;1.30;;;;;;;;;;5027749;28;20051;-72
2023/05/19 10:27:04;;;;;;;2.03;1.23;;;;;;;;;;5045535;28;20091;-72
2023/05/19 10:29:35;;;;;;;1.85;1.40;;;;;;;;;;5036951;28;20258;-71
2023/05/19 10:32:04;;;;;;;2.58;1.48;;;;;;;;;;5044779;28;20041;-72
2023/05/19 10:34:49;;;;;;;1.70;1.30;;;;;;;;;;5036729;28;20056;-72
2023/05/19 10:37:31;;;;;;;3.42;1.40;;;;;;;;;;5044504;28;20115;-72
2023/05/19 10:39:58;;;;;;;2.72;1.40;;;;;;;;;;5039707;28;20081;-71
2023/05/19 10:42:37;;;;;;;3.15;0.98;;;;;;;;;;5027409;28;20059;-71
2023/05/19 10:45:15;;;;;;;4.57;1.50;;;;;;;;;;5026680;28;20138;-72
2023/05/19 10:47:41;;;;;;;12.95;3.00;;;;;;;;;;5027642;28;20041;-70
2023/05/19 10:50:07;;;;;;;6.97;2.30;;;;;;;;;;5043705;28;20164;-70
2023/05/19 10:52:37;;;;;;;8.18;1.67;;;;;;;;;;5044722;28;20057;-71
2023/05/19 10:55:03;;;;;;;2.72;1.30;;;;;;;;;;5026658;28;20049;-71
2023/05/19 10:57:33;;;;;;;2.40;1.05;;;;;;;;;;5026831;28;20499;-71
2023/05/19 11:00:09;;;;;;;2.90;1.20;;;;;;;;;;5044096;28;20040;-71
2023/05/19 11:02:38;;;;;;;3.03;1.30;;;;;;;;;;5026583;28;20624;-70
2023/05/19 11:05:30;;;;;;;3.40;1.20;;;;;;;;;;5044519;28;20085;-70
2023/05/19 11:08:00;;;;;;;3.38;1.80;;;;;;;;;;5042377;28;20041;-71
2023/05/19 11:10:26;;;;;;;1.52;1.20;;;;;;;;;;5042111;28;20064;-69
2023/05/19 11:12:52;;;;;;;1.92;1.20;;;;;;;;;;5029765;28;20045;-70
2023/05/19 11:15:23;;;;;;;2.75;1.10;;;;;;;;;;5044498;28;20609;-70
2023/05/19 11:17:51;;;;;;;1.83;1.10;;;;;;;;;;5043831;28;20037;-70
2023/05/19 11:20:24;;;;;;;2.22;1.10;;;;;;;;;;5026240;28;20520;-70
2023/05/19 11:23:03;;;;;;;1.42;1.00;;;;;;;;;;5043797;28;20677;-70
2023/05/19 11:25:48;;;;;;;0.90;0.70;;;;;;;;;;5036396;28;20033;-70
2023/05/19 11:28:18;;;;;;;2.75;1.67;;;;;;;;;;5045815;28;20056;-69
2023/05/19 11:30:45;;;;;;;2.15;1.30;;;;;;;;;;5046762;28;20558;-69
2023/05/19 11:33:12;;;;;;;1.83;1.20;;;;;;;;;;5026182;28;20057;-69
2023/05/19 11:35:38;;;;;;;2.45;1.60;;;;;;;;;;5044590;28;20037;-69
2023/05/19 11:38:05;;;;;;;2.72;1.48;;;;;;;;;;5025594;28;20059;-69
2023/05/19 11:40:31;;;;;;;1.90;1.23;;;;;;;;;;5044340;28;20033;-69
2023/05/19 11:42:57;;;;;;;2.88;1.48;;;;;;;;;;5044031;28;20484;-69
2023/05/19 11:45:25;;;;;;;2.35;1.23;;;;;;;;;;5043185;28;20056;-69
2023/05/19 11:47:51;;;;;;;2.83;1.30;;;;;;;;;;5044156;28;20041;-69
2023/05/19 11:50:17;;;;;;;3.63;1.85;;;;;;;;;;5025888;28;20060;-69
2023/05/19 11:52:46;;;;;;;3.50;2.00;;;;;;;;;;5044295;28;20049;-69
2023/05/19 11:55:16;;;;;;;3.67;1.70;;;;;;;;;;5026844;28;20049;-69
2023/05/19 11:57:50;;;;;;;2.05;1.20;;;;;;;;;;5026757;28;20071;-69
2023/05/19 12:00:16;;;;;;;2.38;1.58;;;;;;;;;;5043437;28;20041;-70
2023/05/19 12:02:42;;;;;;;1.67;1.35;;;;;;;;;;5053083;28;20093;-69
2023/05/19 12:05:17;;;;;;;3.88;1.63;;;;;;;;;;5042760;28;20466;-70
2023/05/19 12:07:43;;;;;;;2.33;1.38;;;;;;;;;;5020905;28;20546;-70
2023/05/19 12:10:10;;;;;;;2.53;1.48;;;;;;;;;;5043620;28;20503;-69
2023/05/19 12:12:36;;;;;;;2.78;1.30;;;;;;;;;;5027996;28;20531;-70
2023/05/19 12:15:02;;;;;;;3.33;1.40;;;;;;;;;;5047133;28;20119;-75
2023/05/19 12:17:31;;;;;;;3.63;1.98;;;;;;;;;;5048267;28;20119;-71
2023/05/19 12:19:58;;;;;;;1.52;1.33;;;;;;;;;;5028744;28;20140;-70
2023/05/19 12:22:24;;;;;;;2.08;1.15;;;;;;;;;;5046835;28;20525;-70
2023/05/19 12:24:50;;;;;;;1.25;0.95;;;;;;;;;;5028962;28;20499;-71
2023/05/19 12:27:18;;;;;;;1.60;1.00;;;;;;;;;;5029273;28;20091;-70
2023/05/19 12:29:48;;;;;;;2.67;1.50;;;;;;;;;;5031085;28;20060;-70
2023/05/19 12:32:15;;;;;;;1.70;1.13;;;;;;;;;;5048514;28;20095;-70
2023/05/19 12:34:41;;;;;;;2.45;1.55;;;;;;;;;;5028732;28;20059;-70
2023/05/19 12:37:07;;;;;;;1.95;1.52;;;;;;;;;;5028387;28;20491;-70
2023/05/19 12:39:33;;;;;;;3.05;1.48;;;;;;;;;;5028571;28;20128;-71
2023/05/19 12:42:03;;;;;;;2.15;1.50;;;;;;;;;;5045582;28;20057;-70
2023/05/19 12:44:30;;;;;;;3.47;1.42;;;;;;;;;;5046445;28;20053;-70
2023/05/19 12:47:00;;;;;;;3.28;1.63;;;;;;;;;;5028549;28;20660;-71
2023/05/19 12:49:26;;;;;;;3.35;1.52;;;;;;;;;;5045481;28;20068;-70
2023/05/19 12:51:53;;;;;;;2.25;1.20;;;;;;;;;;5027974;28;20084;-70
2023/05/19 12:54:20;;;;;;;1.58;0.90;;;;;;;;;;5046343;28;20045;-70
2023/05/19 12:56:52;;;;;;;1.55;1.05;;;;;;;;;;5027581;28;20124;-70
2023/05/19 12:59:22;;;;;;;1.20;0.63;;;;;;;;;;5028792;28;20053;-70
2023/05/19 13:01:57;;;;;;;1.45;0.75;;;;;;;;;;5045790;28;20041;-71
2023/05/19 13:04:26;;;;;;;3.70;1.30;;;;;;;;;;5050068;28;20101;-72
2023/05/19 13:06:53;;;;;;;2.58;1.10;;;;;;;;;;5044491;28;20084;-73
2023/05/19 13:09:19;;;;;;;1.45;1.00;;;;;;;;;;5033307;28;20053;-71
2023/05/19 13:11:53;;;;;;;1.77;1.25;;;;;;;;;;5033828;28;20079;-71
2023/05/19 13:14:19;;;;;;;2.10;0.98;;;;;;;;;;5039963;28;20057;-70
2023/05/19 13:16:45;;;;;;;2.25;0.88;;;;;;;;;;5044180;28;20045;-70
2023/05/19 13:19:15;;;;;;;1.58;1.00;;;;;;;;;;5028882;28;20060;-71
2023/05/19 13:21:42;;;;;;;1.90;1.23;;;;;;;;;;5017484;28;20075;-70
2023/05/19 13:24:08;;;;;;;3.47;1.63;;;;;;;;;;5037778;28;20059;-69
2023/05/19 13:26:35;;;;;;;3.15;1.45;;;;;;;;;;5028561;28;20091;-69
2023/05/19 13:29:01;;;;;;;2.13;1.08;;;;;;;;;;5027834;28;20525;-69
2023/05/19 13:31:27;;;;;;;1.95;1.15;;;;;;;;;;5023151;28;20046;-69
2023/05/19 13:33:53;;;;;;;3.25;1.98;;;;;;;;;;5036187;28;20041;-70
2023/05/19 13:36:19;;;;;;;4.70;1.80;;;;;;;;;;5038891;28;20048;-70
2023/05/19 13:38:45;;;;;;;3.88;1.77;;;;;;;;;;5040592;28;20041;-70
2023/05/19 13:41:11;;;;;;;5.07;1.85;;;;;;;;;;5033299;28;20103;-70
2023/05/19 13:43:37;;;;;;;1.88;1.60;;;;;;;;;;5028368;28;20511;-69
2023/05/19 13:46:03;;;;;;;8.27;2.58;;;;;;;;;;5036787;28;20103;-70
2023/05/19 13:48:29;;;;;;;4.90;2.33;;;;;;;;;;5038678;28;20052;-70
2023/05/19 13:50:55;;;;;;;5.35;2.60;;;;;;;;;;5040526;28;20052;-70
2023/05/19 13:53:21;;;;;;;3.97;1.83;;;;;;;;;;5024132;28;20060;-70
2023/05/19 13:55:47;;;;;;;3.80;2.20;;;;;;;;;;5034040;28;20045;-70
2023/05/19 13:58:15;;;;;;;4.55;2.28;;;;;;;;;;5020629;28;20049;-70
2023/05/19 14:00:41;;;;;;;3.55;1.73;;;;;;;;;;5039786;28;20042;-70
2023/05/19 14:03:07;;;;;;;5.13;1.80;;;;;;;;;;5043120;28;20055;-70
2023/05/19 14:05:34;;;;;;;6.13;2.35;;;;;;;;;;5018019;28;20057;-70
2023/05/19 14:08:02;;;;;;;4.15;1.90;;;;;;;;;;5015594;28;20432;-70
2023/05/19 14:10:28;;;;;;;4.53;2.38;;;;;;;;;;5019827;28;20045;-70
2023/05/19 14:12:58;;;;;;;5.68;1.92;;;;;;;;;;5040333;28;20071;-70
2023/05/19 14:15:24;;;;;;;10.43;2.17;;;;;;;;;;5042161;28;20122;-69
2023/05/19 14:17:51;;;;;;;2.50;1.23;;;;;;;;;;5040088;28;20044;-69
2023/05/19 14:20:17;;;;;;;4.20;1.55;;;;;;;;;;5037916;28;20491;-70
2023/05/19 14:22:43;;;;;;;8.23;2.25;;;;;;;;;;5016923;28;20515;-69
2023/05/19 14:25:09;;;;;;;4.57;1.80;;;;;;;;;;5026919;28;20052;-70
2023/05/19 14:27:35;;;;;;;3.08;1.80;;;;;;;;;;5040815;28;20124;-70
2023/05/19 14:30:02;;;;;;;3.85;1.67;;;;;;;;;;5033897;28;20052;-71
2023/05/19 14:32:28;;;;;;;7.70;2.05;;;;;;;;;;5050435;28;20044;-69
2023/05/19 14:34:54;;;;;;;4.95;2.00;;;;;;;;;;5043794;28;20061;-70
2023/05/19 14:37:20;;;;;;;4.97;2.38;;;;;;;;;;5044078;28;21204;-70
2023/05/19 14:39:46;;;;;;;3.75;1.98;;;;;;;;;;5026320;28;20064;-71
2023/05/19 14:42:12;;;;;;;5.32;2.78;;;;;;;;;;5030413;28;20041;-71
2023/05/19 14:44:38;;;;;;;4.20;2.13;;;;;;;;;;5020477;28;20068;-70